Portada
METAR-TAF:

METAR-TAF

Aeroports :

Cloquet/Carlton County Airport

Cloquet, Minnesota, Estats Units d'Amèrica

latitud: 46-42N, longitud: 092-30W, altitud: 390 m

Observació

L'informe es va fer fa 7 minuts, a les 18:16 UTC
Vent 10 kt del Sud/Sud-Oest amb ràfegues de 15 kt, variant entre Sud i Oest/Sud-Oest
Temperatura 28°C
Humitat 42%
Pressió 1006 hPa
Visibilitat: 16.1 km
Cel clar

METAR: KCOQ 251816Z AUTO 21010G15KT 182V242 10SM CLR 28/14 A2971 RMK AO2

Hora: 13:23 (18:23 UTC)


TAF: manca

Observacions i pronòstics meteorològics de més de 4000 aeroports (METAR i TAF).

Les estacions disponibles són els punts grocs i vermells al mapa.

Posi el ratolí al punt desitjat per veure el nom de l'estació.

Feu clic per veure les observacions i els pronòstics meteorològics.

Per canviar el mapa: feu clic els botons verds amb una creu de color negre per apropar; al botó verd amb un guió per allunyar la imatge; o en les fletxes verdes per a mapes adjacents.


METAR-TAF: